SPOKANE, WA

4:49 PM PDT on June 26, 2017 (GMT -0700)
Coulee Hite RD | | Change Station

Elev 1950 ft 47.74 °N, 117.60 °W | Updated 8 seconds ago

Clear
Clear
89.4 °F
Feels Like 86 °F
N
0.0
Wind Variable Wind from SW
Gusts 0.0 mph

Today
High -- | Low -- °F
--% Chance of Precip.
Yesterday
High -- | Low -- °F
Precip. -- in
Pressure 29.74 in
Visibility 10.0 miles
Clouds Few 10000 ft
Few 17000 ft
Scattered Clouds 25000 ft
Heat Index 86 °F
Dew Point 47 °F
Humidity 23%
Rainfall 0.00 in
Snow Depth Not available.
4:54 AM 8:52 PM
Waxing Crescent, 12% visible
METAR KGEG 262253Z 22008KT 10SM FEW100 FEW170 SCT250 32/09 A2980 RMK AO2 SLP071 T03170089
Pressure 29.74 in
Visibility 10.0 miles
Clouds Few 10000 ft
Few 17000 ft
Scattered Clouds 25000 ft
Heat Index 86 °F
Dew Point 47 °F
Humidity 23%
Rainfall 0.00 in
Snow Depth Not available.
4:54 AM 8:52 PM
Waxing Crescent, 12% visible
METAR KGEG 262253Z 22008KT 10SM FEW100 FEW170 SCT250 32/09 A2980 RMK AO2 SLP071 T03170089

Get Severe Weather Alerts

Thanks for signing up!

Be on the lookout for a verification email in your inbox.

You'll start receiving the daily forecast at 6 AM.

×

10-Day Weather Forecast

Almanac

Astronomy

Jun. 26, 2017 Rise Set
Actual Time
Civil Twilight
Nautical Twilight
Astronomical Twilight
Moon
Length of Visible Light
Length of Day
Tomorrow will be .
, % of the Moon is Illuminated

Today's Extremes

State Highs State Lows

Community

WunderPhotos

Category 6

Welcome to Category 6. This is the collective home for Weather Underground's featured writeups by Dr. Jeff Masters (right), Bob Henson (left), Chris Burt, and other regular contributors.

Nearby

Air Quality

  Air Quality AQ Index Pollutant
Not available.

Snow Depth

Station Depth Elevation

Earthquake Activity

City Distance Mag. Time & Date
Minimum magnitude displayed is 2.5.

Coastal Water Temperatures

Place Temperature

Stations

Nearby Weather Stations

Station Location Temp. Windchill Dew Point Humidity Wind Precip. Elev Updated Type
                   

Watches & Warnings

There are currently no watches in effect.